sensor_id;sensor_type;location;lat;lon;timestamp;temperature;humidity
20856;DHT22;63058;49.424;8.420;2023-04-03T00:01:29;9.10;92.10
20856;DHT22;63058;49.424;8.420;2023-04-03T00:03:55;9.00;92.00
20856;DHT22;63058;49.424;8.420;2023-04-03T00:06:22;8.90;92.00
20856;DHT22;63058;49.424;8.420;2023-04-03T00:08:48;8.80;92.10
20856;DHT22;63058;49.424;8.420;2023-04-03T00:11:13;8.80;92.00
20856;DHT22;63058;49.424;8.420;2023-04-03T00:13:40;8.70;92.20
20856;DHT22;63058;49.424;8.420;2023-04-03T00:16:07;8.60;92.20
20856;DHT22;63058;49.424;8.420;2023-04-03T00:18:33;8.60;92.20
20856;DHT22;63058;49.424;8.420;2023-04-03T00:20:59;8.60;92.50
20856;DHT22;63058;49.424;8.420;2023-04-03T00:23:25;8.60;92.50
20856;DHT22;63058;49.424;8.420;2023-04-03T00:25:51;8.50;92.40
20856;DHT22;63058;49.424;8.420;2023-04-03T00:28:16;8.50;92.50
20856;DHT22;63058;49.424;8.420;2023-04-03T00:30:42;8.50;92.50
20856;DHT22;63058;49.424;8.420;2023-04-03T00:33:11;8.40;92.50
20856;DHT22;63058;49.424;8.420;2023-04-03T00:35:37;8.40;92.30
20856;DHT22;63058;49.424;8.420;2023-04-03T00:38:03;8.40;92.60
20856;DHT22;63058;49.424;8.420;2023-04-03T00:40:34;8.30;92.60
20856;DHT22;63058;49.424;8.420;2023-04-03T00:43:15;8.30;92.40
20856;DHT22;63058;49.424;8.420;2023-04-03T00:45:43;8.20;92.10
20856;DHT22;63058;49.424;8.420;2023-04-03T00:48:13;8.20;92.70
20856;DHT22;63058;49.424;8.420;2023-04-03T00:50:42;8.10;92.70
20856;DHT22;63058;49.424;8.420;2023-04-03T00:53:14;8.10;92.70
20856;DHT22;63058;49.424;8.420;2023-04-03T00:55:42;8.10;92.70
20856;DHT22;63058;49.424;8.420;2023-04-03T00:58:08;8.10;92.80
20856;DHT22;63058;49.424;8.420;2023-04-03T01:00:37;8.10;92.90
20856;DHT22;63058;49.424;8.420;2023-04-03T01:03:04;8.20;93.00
20856;DHT22;63058;49.424;8.420;2023-04-03T01:05:29;8.20;93.10
20856;DHT22;63058;49.424;8.420;2023-04-03T01:07:56;8.20;93.20
20856;DHT22;63058;49.424;8.420;2023-04-03T01:10:22;8.20;92.90
20856;DHT22;63058;49.424;8.420;2023-04-03T01:12:50;8.20;93.00
20856;DHT22;63058;49.424;8.420;2023-04-03T01:15:19;8.20;92.90
20856;DHT22;63058;49.424;8.420;2023-04-03T01:17:46;8.20;92.90
20856;DHT22;63058;49.424;8.420;2023-04-03T01:20:35;8.20;93.00
20856;DHT22;63058;49.424;8.420;2023-04-03T01:26:06;8.20;92.30
20856;DHT22;63058;49.424;8.420;2023-04-03T01:28:34;8.20;92.90
20856;DHT22;63058;49.424;8.420;2023-04-03T01:33:47;8.10;92.30
20856;DHT22;63058;49.424;8.420;2023-04-03T01:36:18;8.10;93.00
20856;DHT22;63058;49.424;8.420;2023-04-03T01:38:44;8.10;92.90
20856;DHT22;63058;49.424;8.420;2023-04-03T01:41:10;8.00;93.10
20856;DHT22;63058;49.424;8.420;2023-04-03T01:43:35;8.00;93.00
20856;DHT22;63058;49.424;8.420;2023-04-03T01:46:01;8.00;93.00
20856;DHT22;63058;49.424;8.420;2023-04-03T01:48:26;8.00;93.00
20856;DHT22;63058;49.424;8.420;2023-04-03T01:50:53;7.90;93.00
20856;DHT22;63058;49.424;8.420;2023-04-03T01:53:18;8.00;93.00
20856;DHT22;63058;49.424;8.420;2023-04-03T01:55:44;8.00;93.00
20856;DHT22;63058;49.424;8.420;2023-04-03T01:58:10;8.00;93.10
20856;DHT22;63058;49.424;8.420;2023-04-03T02:00:36;8.00;93.00
20856;DHT22;63058;49.424;8.420;2023-04-03T02:03:02;7.90;93.10
20856;DHT22;63058;49.424;8.420;2023-04-03T02:05:28;7.90;93.00
20856;DHT22;63058;49.424;8.420;2023-04-03T02:07:54;7.90;93.10
20856;DHT22;63058;49.424;8.420;2023-04-03T02:10:23;8.00;93.10
20856;DHT22;63058;49.424;8.420;2023-04-03T02:12:49;7.90;92.90
20856;DHT22;63058;49.424;8.420;2023-04-03T02:15:15;7.90;93.00
20856;DHT22;63058;49.424;8.420;2023-04-03T02:17:41;7.90;93.50
20856;DHT22;63058;49.424;8.420;2023-04-03T02:20:07;7.90;93.10
20856;DHT22;63058;49.424;8.420;2023-04-03T02:22:33;7.80;92.90
20856;DHT22;63058;49.424;8.420;2023-04-03T02:24:59;7.80;93.00
20856;DHT22;63058;49.424;8.420;2023-04-03T02:27:25;7.90;93.10
20856;DHT22;63058;49.424;8.420;2023-04-03T02:29:50;7.70;93.00
20856;DHT22;63058;49.424;8.420;2023-04-03T02:32:16;7.70;93.00
20856;DHT22;63058;49.424;8.420;2023-04-03T02:34:41;7.60;92.90
20856;DHT22;63058;49.424;8.420;2023-04-03T02:37:07;7.70;93.20
20856;DHT22;63058;49.424;8.420;2023-04-03T02:39:34;7.60;93.00
20856;DHT22;63058;49.424;8.420;2023-04-03T02:41:59;7.70;93.10
20856;DHT22;63058;49.424;8.420;2023-04-03T02:44:25;7.60;93.20
20856;DHT22;63058;49.424;8.420;2023-04-03T02:46:51;7.60;93.20
20856;DHT22;63058;49.424;8.420;2023-04-03T02:49:16;7.60;93.20
20856;DHT22;63058;49.424;8.420;2023-04-03T02:51:42;7.50;93.30
20856;DHT22;63058;49.424;8.420;2023-04-03T02:54:08;7.60;93.30
20856;DHT22;63058;49.424;8.420;2023-04-03T02:56:33;7.50;93.20
20856;DHT22;63058;49.424;8.420;2023-04-03T02:58:59;7.60;93.60
20856;DHT22;63058;49.424;8.420;2023-04-03T03:01:25;7.50;93.20
20856;DHT22;63058;49.424;8.420;2023-04-03T03:03:53;7.50;93.20
20856;DHT22;63058;49.424;8.420;2023-04-03T03:06:19;7.50;93.20
20856;DHT22;63058;49.424;8.420;2023-04-03T03:08:45;7.50;93.20
20856;DHT22;63058;49.424;8.420;2023-04-03T03:11:11;7.50;93.50
20856;DHT22;63058;49.424;8.420;2023-04-03T03:13:36;7.50;93.20
20856;DHT22;63058;49.424;8.420;2023-04-03T03:16:02;7.50;93.20
20856;DHT22;63058;49.424;8.420;2023-04-03T03:18:28;7.40;93.20
20856;DHT22;63058;49.424;8.420;2023-04-03T03:20:56;7.40;93.20
20856;DHT22;63058;49.424;8.420;2023-04-03T03:23:23;7.40;93.20
20856;DHT22;63058;49.424;8.420;2023-04-03T03:25:55;7.30;93.20
20856;DHT22;63058;49.424;8.420;2023-04-03T03:28:21;7.30;92.90
20856;DHT22;63058;49.424;8.420;2023-04-03T03:30:46;7.30;93.20
20856;DHT22;63058;49.424;8.420;2023-04-03T03:33:12;7.40;93.40
20856;DHT22;63058;49.424;8.420;2023-04-03T03:35:37;7.20;93.30
20856;DHT22;63058;49.424;8.420;2023-04-03T03:38:03;7.20;93.30
20856;DHT22;63058;49.424;8.420;2023-04-03T03:40:29;7.20;93.30
20856;DHT22;63058;49.424;8.420;2023-04-03T03:42:54;7.20;93.20
20856;DHT22;63058;49.424;8.420;2023-04-03T03:45:20;7.20;93.20
20856;DHT22;63058;49.424;8.420;2023-04-03T03:47:45;7.20;93.30
20856;DHT22;63058;49.424;8.420;2023-04-03T03:50:11;7.20;93.30
20856;DHT22;63058;49.424;8.420;2023-04-03T03:52:37;7.10;93.20
20856;DHT22;63058;49.424;8.420;2023-04-03T03:55:04;7.20;93.20
20856;DHT22;63058;49.424;8.420;2023-04-03T03:57:30;7.10;93.10
20856;DHT22;63058;49.424;8.420;2023-04-03T03:59:55;7.10;93.10
20856;DHT22;63058;49.424;8.420;2023-04-03T04:02:21;7.10;93.20
20856;DHT22;63058;49.424;8.420;2023-04-03T04:04:47;7.10;93.20
20856;DHT22;63058;49.424;8.420;2023-04-03T04:07:13;7.00;93.20
20856;DHT22;63058;49.424;8.420;2023-04-03T04:09:39;7.00;93.20
20856;DHT22;63058;49.424;8.420;2023-04-03T04:12:05;7.00;93.30
20856;DHT22;63058;49.424;8.420;2023-04-03T04:14:31;7.00;93.30
20856;DHT22;63058;49.424;8.420;2023-04-03T04:16:57;7.10;93.30
20856;DHT22;63058;49.424;8.420;2023-04-03T04:19:22;7.00;93.40
20856;DHT22;63058;49.424;8.420;2023-04-03T04:21:48;6.90;93.30
20856;DHT22;63058;49.424;8.420;2023-04-03T04:24:13;6.90;93.30
20856;DHT22;63058;49.424;8.420;2023-04-03T04:26:39;6.90;93.40
20856;DHT22;63058;49.424;8.420;2023-04-03T04:29:05;6.90;93.40
20856;DHT22;63058;49.424;8.420;2023-04-03T04:31:30;6.90;93.30
20856;DHT22;63058;49.424;8.420;2023-04-03T04:33:56;6.90;93.40
20856;DHT22;63058;49.424;8.420;2023-04-03T04:36:22;6.90;93.30
20856;DHT22;63058;49.424;8.420;2023-04-03T04:38:47;6.90;93.30
20856;DHT22;63058;49.424;8.420;2023-04-03T04:41:13;6.90;93.20
20856;DHT22;63058;49.424;8.420;2023-04-03T04:43:38;6.90;93.10
20856;DHT22;63058;49.424;8.420;2023-04-03T04:46:09;6.90;93.20
20856;DHT22;63058;49.424;8.420;2023-04-03T04:48:37;6.90;93.00
20856;DHT22;63058;49.424;8.420;2023-04-03T04:51:03;6.90;93.20
20856;DHT22;63058;49.424;8.420;2023-04-03T04:53:29;6.80;93.10
20856;DHT22;63058;49.424;8.420;2023-04-03T04:55:55;6.80;93.10
20856;DHT22;63058;49.424;8.420;2023-04-03T04:58:20;6.80;93.20
20856;DHT22;63058;49.424;8.420;2023-04-03T05:00:46;6.80;93.10
20856;DHT22;63058;49.424;8.420;2023-04-03T05:03:12;6.80;93.20
20856;DHT22;63058;49.424;8.420;2023-04-03T05:05:38;6.80;93.30
20856;DHT22;63058;49.424;8.420;2023-04-03T05:08:04;6.70;93.40
20856;DHT22;63058;49.424;8.420;2023-04-03T05:10:30;6.80;93.50
20856;DHT22;63058;49.424;8.420;2023-04-03T05:12:56;6.70;93.50
20856;DHT22;63058;49.424;8.420;2023-04-03T05:15:22;6.80;93.60
20856;DHT22;63058;49.424;8.420;2023-04-03T05:17:47;6.70;93.50
20856;DHT22;63058;49.424;8.420;2023-04-03T05:20:13;6.80;93.60
20856;DHT22;63058;49.424;8.420;2023-04-03T05:22:38;6.80;93.70
20856;DHT22;63058;49.424;8.420;2023-04-03T05:25:05;6.80;93.90
20856;DHT22;63058;49.424;8.420;2023-04-03T05:27:31;6.80;93.90
20856;DHT22;63058;49.424;8.420;2023-04-03T05:29:56;6.90;94.00
20856;DHT22;63058;49.424;8.420;2023-04-03T05:32:23;7.00;94.20
20856;DHT22;63058;49.424;8.420;2023-04-03T05:34:50;7.00;94.20
20856;DHT22;63058;49.424;8.420;2023-04-03T05:37:17;7.00;94.20
20856;DHT22;63058;49.424;8.420;2023-04-03T05:39:42;7.10;94.20
20856;DHT22;63058;49.424;8.420;2023-04-03T05:42:08;7.10;94.30
20856;DHT22;63058;49.424;8.420;2023-04-03T05:44:34;7.20;94.30
20856;DHT22;63058;49.424;8.420;2023-04-03T05:47:00;7.20;94.40
20856;DHT22;63058;49.424;8.420;2023-04-03T05:49:26;7.20;94.30
20856;DHT22;63058;49.424;8.420;2023-04-03T05:51:51;7.30;94.30
20856;DHT22;63058;49.424;8.420;2023-04-03T05:54:28;7.30;94.20
20856;DHT22;63058;49.424;8.420;2023-04-03T05:56:54;7.30;94.00
20856;DHT22;63058;49.424;8.420;2023-04-03T05:59:21;7.40;94.30
20856;DHT22;63058;49.424;8.420;2023-04-03T06:01:47;7.40;94.30
20856;DHT22;63058;49.424;8.420;2023-04-03T06:04:13;7.40;94.40
20856;DHT22;63058;49.424;8.420;2023-04-03T06:06:44;7.40;94.40
20856;DHT22;63058;49.424;8.420;2023-04-03T06:09:10;7.50;94.30
20856;DHT22;63058;49.424;8.420;2023-04-03T06:11:36;7.50;94.70
20856;DHT22;63058;49.424;8.420;2023-04-03T06:14:02;7.60;94.70
20856;DHT22;63058;49.424;8.420;2023-04-03T06:16:28;7.60;94.70
20856;DHT22;63058;49.424;8.420;2023-04-03T06:18:54;7.60;94.60
20856;DHT22;63058;49.424;8.420;2023-04-03T06:21:20;7.70;94.60
20856;DHT22;63058;49.424;8.420;2023-04-03T06:23:46;7.70;94.60
20856;DHT22;63058;49.424;8.420;2023-04-03T06:26:11;7.80;94.70
20856;DHT22;63058;49.424;8.420;2023-04-03T06:28:37;7.90;94.70
20856;DHT22;63058;49.424;8.420;2023-04-03T06:31:03;7.90;94.80
20856;DHT22;63058;49.424;8.420;2023-04-03T06:33:28;7.90;94.60
20856;DHT22;63058;49.424;8.420;2023-04-03T06:36:03;7.90;94.60
20856;DHT22;63058;49.424;8.420;2023-04-03T06:38:29;7.90;94.30
20856;DHT22;63058;49.424;8.420;2023-04-03T06:40:55;8.00;94.60
20856;DHT22;63058;49.424;8.420;2023-04-03T06:43:21;7.90;94.70
20856;DHT22;63058;49.424;8.420;2023-04-03T06:45:47;8.00;94.80
20856;DHT22;63058;49.424;8.420;2023-04-03T06:48:13;8.00;94.90
20856;DHT22;63058;49.424;8.420;2023-04-03T06:50:39;8.00;94.90
20856;DHT22;63058;49.424;8.420;2023-04-03T06:53:04;8.10;94.90
20856;DHT22;63058;49.424;8.420;2023-04-03T06:55:31;8.10;94.80
20856;DHT22;63058;49.424;8.420;2023-04-03T06:57:57;8.20;94.70
20856;DHT22;63058;49.424;8.420;2023-04-03T07:00:22;8.20;94.80
20856;DHT22;63058;49.424;8.420;2023-04-03T07:02:48;8.30;94.80
20856;DHT22;63058;49.424;8.420;2023-04-03T07:05:14;8.30;94.60
20856;DHT22;63058;49.424;8.420;2023-04-03T07:07:39;8.40;94.70
20856;DHT22;63058;49.424;8.420;2023-04-03T07:10:06;8.40;94.70
20856;DHT22;63058;49.424;8.420;2023-04-03T07:12:32;8.50;94.60
20856;DHT22;63058;49.424;8.420;2023-04-03T07:14:58;8.60;94.80
20856;DHT22;63058;49.424;8.420;2023-04-03T07:17:24;8.60;94.60
20856;DHT22;63058;49.424;8.420;2023-04-03T07:19:50;8.70;94.80
20856;DHT22;63058;49.424;8.420;2023-04-03T07:22:16;8.70;94.90
20856;DHT22;63058;49.424;8.420;2023-04-03T07:24:42;8.80;94.70
20856;DHT22;63058;49.424;8.420;2023-04-03T07:27:07;8.80;94.40
20856;DHT22;63058;49.424;8.420;2023-04-03T07:29:34;8.80;94.60
20856;DHT22;63058;49.424;8.420;2023-04-03T07:32:01;8.90;94.60
20856;DHT22;63058;49.424;8.420;2023-04-03T07:34:26;8.90;94.50
20856;DHT22;63058;49.424;8.420;2023-04-03T07:36:52;9.00;94.60
20856;DHT22;63058;49.424;8.420;2023-04-03T07:39:18;9.00;94.50
20856;DHT22;63058;49.424;8.420;2023-04-03T07:41:44;9.10;94.70
20856;DHT22;63058;49.424;8.420;2023-04-03T07:44:09;9.10;94.60
20856;DHT22;63058;49.424;8.420;2023-04-03T07:46:36;9.20;94.50
20856;DHT22;63058;49.424;8.420;2023-04-03T07:49:02;9.20;94.40
20856;DHT22;63058;49.424;8.420;2023-04-03T07:51:27;9.20;94.40
20856;DHT22;63058;49.424;8.420;2023-04-03T07:53:55;9.30;94.50
20856;DHT22;63058;49.424;8.420;2023-04-03T07:56:20;9.30;94.50
20856;DHT22;63058;49.424;8.420;2023-04-03T07:58:46;9.40;94.40
20856;DHT22;63058;49.424;8.420;2023-04-03T08:01:12;9.40;94.40
20856;DHT22;63058;49.424;8.420;2023-04-03T08:03:38;9.50;94.60
20856;DHT22;63058;49.424;8.420;2023-04-03T08:06:08;9.50;94.50
20856;DHT22;63058;49.424;8.420;2023-04-03T08:08:35;9.60;94.00
20856;DHT22;63058;49.424;8.420;2023-04-03T08:11:01;9.60;94.50
20856;DHT22;63058;49.424;8.420;2023-04-03T08:13:28;9.70;94.60
20856;DHT22;63058;49.424;8.420;2023-04-03T08:15:54;9.70;94.40
20856;DHT22;63058;49.424;8.420;2023-04-03T08:18:23;9.70;94.40
20856;DHT22;63058;49.424;8.420;2023-04-03T08:20:50;9.80;94.30
20856;DHT22;63058;49.424;8.420;2023-04-03T08:23:17;9.80;94.20
20856;DHT22;63058;49.424;8.420;2023-04-03T08:25:43;9.90;94.30
20856;DHT22;63058;49.424;8.420;2023-04-03T08:28:10;10.00;94.20
20856;DHT22;63058;49.424;8.420;2023-04-03T08:30:39;10.10;94.20
20856;DHT22;63058;49.424;8.420;2023-04-03T08:33:06;10.00;93.80
20856;DHT22;63058;49.424;8.420;2023-04-03T08:35:32;10.10;94.10
20856;DHT22;63058;49.424;8.420;2023-04-03T08:37:58;10.20;94.20
20856;DHT22;63058;49.424;8.420;2023-04-03T08:40:24;10.20;94.40
20856;DHT22;63058;49.424;8.420;2023-04-03T08:43:18;10.30;93.90
20856;DHT22;63058;49.424;8.420;2023-04-03T08:45:53;10.30;92.90
20856;DHT22;63058;49.424;8.420;2023-04-03T08:48:33;10.40;93.50
20856;DHT22;63058;49.424;8.420;2023-04-03T08:51:03;10.40;92.70
20856;DHT22;63058;49.424;8.420;2023-04-03T08:53:34;10.50;92.70
20856;DHT22;63058;49.424;8.420;2023-04-03T08:56:06;10.50;93.00
20856;DHT22;63058;49.424;8.420;2023-04-03T08:58:42;10.60;92.90
20856;DHT22;63058;49.424;8.420;2023-04-03T09:01:38;10.60;92.00
20856;DHT22;63058;49.424;8.420;2023-04-03T09:04:14;10.60;92.20
20856;DHT22;63058;49.424;8.420;2023-04-03T09:06:43;10.60;92.40
20856;DHT22;63058;49.424;8.420;2023-04-03T09:09:15;10.70;92.80
20856;DHT22;63058;49.424;8.420;2023-04-03T09:17:00;10.80;91.90
20856;DHT22;63058;49.424;8.420;2023-04-03T09:19:53;10.90;92.30
20856;DHT22;63058;49.424;8.420;2023-04-03T09:22:28;10.90;91.70
20856;DHT22;63058;49.424;8.420;2023-04-03T09:27:25;11.00;92.70
20856;DHT22;63058;49.424;8.420;2023-04-03T09:29:56;11.10;92.70
20856;DHT22;63058;49.424;8.420;2023-04-03T09:32:28;11.10;92.20
20856;DHT22;63058;49.424;8.420;2023-04-03T09:35:04;11.20;92.20
20856;DHT22;63058;49.424;8.420;2023-04-03T09:37:44;11.30;92.20
20856;DHT22;63058;49.424;8.420;2023-04-03T09:42:53;11.40;91.20
20856;DHT22;63058;49.424;8.420;2023-04-03T09:45:31;11.40;92.00
20856;DHT22;63058;49.424;8.420;2023-04-03T09:48:18;11.50;91.10
20856;DHT22;63058;49.424;8.420;2023-04-03T09:55:59;11.70;90.70
20856;DHT22;63058;49.424;8.420;2023-04-03T09:58:32;11.70;91.70
20856;DHT22;63058;49.424;8.420;2023-04-03T10:01:00;11.80;91.80
20856;DHT22;63058;49.424;8.420;2023-04-03T10:03:30;11.90;92.00
20856;DHT22;63058;49.424;8.420;2023-04-03T10:05:57;12.00;90.70
20856;DHT22;63058;49.424;8.420;2023-04-03T10:08:26;12.10;90.40
20856;DHT22;63058;49.424;8.420;2023-04-03T10:11:28;12.20;90.20
20856;DHT22;63058;49.424;8.420;2023-04-03T10:13:55;12.30;89.70
20856;DHT22;63058;49.424;8.420;2023-04-03T10:16:46;12.40;91.40
20856;DHT22;63058;49.424;8.420;2023-04-03T10:21:47;12.50;91.10
20856;DHT22;63058;49.424;8.420;2023-04-03T10:24:32;12.60;90.80
20856;DHT22;63058;49.424;8.420;2023-04-03T10:32:45;12.60;88.70
20856;DHT22;63058;49.424;8.420;2023-04-03T10:40:50;13.00;92.30
20856;DHT22;63058;49.424;8.420;2023-04-03T10:43:41;13.40;91.30
20856;DHT22;63058;49.424;8.420;2023-04-03T10:46:12;13.80;91.60
20856;DHT22;63058;49.424;8.420;2023-04-03T10:48:56;14.10;92.20
20856;DHT22;63058;49.424;8.420;2023-04-03T11:02:28;15.00;85.30
20856;DHT22;63058;49.424;8.420;2023-04-03T11:05:06;14.90;86.70
20856;DHT22;63058;49.424;8.420;2023-04-03T11:07:40;15.00;86.40
20856;DHT22;63058;49.424;8.420;2023-04-03T11:10:37;15.00;87.70
20856;DHT22;63058;49.424;8.420;2023-04-03T11:13:21;15.10;82.90
20856;DHT22;63058;49.424;8.420;2023-04-03T11:15:49;15.30;88.60
20856;DHT22;63058;49.424;8.420;2023-04-03T11:18:21;15.60;91.60
20856;DHT22;63058;49.424;8.420;2023-04-03T11:21:04;16.00;90.20
20856;DHT22;63058;49.424;8.420;2023-04-03T11:23:35;16.30;87.50
20856;DHT22;63058;49.424;8.420;2023-04-03T11:26:16;16.70;87.80
20856;DHT22;63058;49.424;8.420;2023-04-03T11:28:42;16.90;87.20
20856;DHT22;63058;49.424;8.420;2023-04-03T11:31:29;17.10;88.90
20856;DHT22;63058;49.424;8.420;2023-04-03T11:36:51;17.20;86.10
20856;DHT22;63058;49.424;8.420;2023-04-03T11:39:29;17.20;85.70
20856;DHT22;63058;49.424;8.420;2023-04-03T11:41:55;17.20;82.70
20856;DHT22;63058;49.424;8.420;2023-04-03T11:44:38;17.30;85.10
20856;DHT22;63058;49.424;8.420;2023-04-03T11:47:06;17.30;85.10
20856;DHT22;63058;49.424;8.420;2023-04-03T11:49:52;17.10;83.20
20856;DHT22;63058;49.424;8.420;2023-04-03T12:00:50;16.50;79.10
20856;DHT22;63058;49.424;8.420;2023-04-03T12:13:39;17.00;79.20
20856;DHT22;63058;49.424;8.420;2023-04-03T12:16:28;17.10;80.30
20856;DHT22;63058;49.424;8.420;2023-04-03T12:24:24;16.70;73.60
20856;DHT22;63058;49.424;8.420;2023-04-03T12:37:57;15.60;78.40
20856;DHT22;63058;49.424;8.420;2023-04-03T12:40:27;15.40;76.80
20856;DHT22;63058;49.424;8.420;2023-04-03T12:51:15;14.80;78.20
20856;DHT22;63058;49.424;8.420;2023-04-03T12:53:42;14.80;79.10
20856;DHT22;63058;49.424;8.420;2023-04-03T12:56:27;14.80;81.10
20856;DHT22;63058;49.424;8.420;2023-04-03T12:58:56;14.70;78.10
20856;DHT22;63058;49.424;8.420;2023-04-03T13:01:37;14.70;80.50
20856;DHT22;63058;49.424;8.420;2023-04-03T13:04:03;14.70;81.40
20856;DHT22;63058;49.424;8.420;2023-04-03T13:06:39;14.80;81.50
20856;DHT22;63058;49.424;8.420;2023-04-03T13:09:06;14.90;81.50
20856;DHT22;63058;49.424;8.420;2023-04-03T13:11:42;15.30;87.60
20856;DHT22;63058;49.424;8.420;2023-04-03T13:14:22;15.90;90.40
20856;DHT22;63058;49.424;8.420;2023-04-03T13:17:20;16.60;90.20
20856;DHT22;63058;49.424;8.420;2023-04-03T13:19:45;17.10;84.80
20856;DHT22;63058;49.424;8.420;2023-04-03T13:22:34;17.50;86.30
20856;DHT22;63058;49.424;8.420;2023-04-03T13:25:07;17.70;79.30
20856;DHT22;63058;49.424;8.420;2023-04-03T13:27:34;17.60;79.00
20856;DHT22;63058;49.424;8.420;2023-04-03T13:30:02;17.60;81.80
20856;DHT22;63058;49.424;8.420;2023-04-03T13:32:31;17.70;84.30
20856;DHT22;63058;49.424;8.420;2023-04-03T13:34:57;18.00;85.90
20856;DHT22;63058;49.424;8.420;2023-04-03T13:37:29;18.30;87.30
20856;DHT22;63058;49.424;8.420;2023-04-03T13:42:34;18.80;82.20
20856;DHT22;63058;49.424;8.420;2023-04-03T13:45:23;19.10;85.80
20856;DHT22;63058;49.424;8.420;2023-04-03T13:47:50;19.40;78.30
20856;DHT22;63058;49.424;8.420;2023-04-03T13:50:22;19.70;85.20
20856;DHT22;63058;49.424;8.420;2023-04-03T13:52:49;19.90;82.40
20856;DHT22;63058;49.424;8.420;2023-04-03T13:55:52;20.00;81.70
20856;DHT22;63058;49.424;8.420;2023-04-03T13:58:26;19.90;76.30
20856;DHT22;63058;49.424;8.420;2023-04-03T14:01:07;19.60;75.20
20856;DHT22;63058;49.424;8.420;2023-04-03T14:03:51;19.20;73.70
20856;DHT22;63058;49.424;8.420;2023-04-03T14:06:17;18.70;71.70
20856;DHT22;63058;49.424;8.420;2023-04-03T14:08:44;18.30;72.30
20856;DHT22;63058;49.424;8.420;2023-04-03T14:11:19;17.80;72.70
20856;DHT22;63058;49.424;8.420;2023-04-03T14:13:47;17.50;72.00
20856;DHT22;63058;49.424;8.420;2023-04-03T14:16:19;17.30;73.90
20856;DHT22;63058;49.424;8.420;2023-04-03T14:18:46;17.10;73.50
20856;DHT22;63058;49.424;8.420;2023-04-03T14:21:14;17.00;74.50
20856;DHT22;63058;49.424;8.420;2023-04-03T14:23:39;16.80;73.70
20856;DHT22;63058;49.424;8.420;2023-04-03T14:26:15;16.70;74.60
20856;DHT22;63058;49.424;8.420;2023-04-03T14:28:42;16.60;71.10
20856;DHT22;63058;49.424;8.420;2023-04-03T14:31:08;16.40;74.80
20856;DHT22;63058;49.424;8.420;2023-04-03T14:33:35;16.30;72.40
20856;DHT22;63058;49.424;8.420;2023-04-03T14:36:08;16.10;74.00
20856;DHT22;63058;49.424;8.420;2023-04-03T14:38:36;16.20;77.30
20856;DHT22;63058;49.424;8.420;2023-04-03T14:41:02;16.50;82.00
20856;DHT22;63058;49.424;8.420;2023-04-03T14:43:28;17.00;85.40
20856;DHT22;63058;49.424;8.420;2023-04-03T14:45:53;17.60;88.40
20856;DHT22;63058;49.424;8.420;2023-04-03T14:48:30;18.40;88.50
20856;DHT22;63058;49.424;8.420;2023-04-03T14:50:56;19.10;86.70
20856;DHT22;63058;49.424;8.420;2023-04-03T14:53:22;19.80;90.00
20856;DHT22;63058;49.424;8.420;2023-04-03T14:55:51;20.30;83.80
20856;DHT22;63058;49.424;8.420;2023-04-03T14:58:18;20.60;77.20
20856;DHT22;63058;49.424;8.420;2023-04-03T15:00:45;20.50;72.70
20856;DHT22;63058;49.424;8.420;2023-04-03T15:03:19;20.10;71.90
20856;DHT22;63058;49.424;8.420;2023-04-03T15:05:45;19.90;72.60
20856;DHT22;63058;49.424;8.420;2023-04-03T15:08:26;19.90;78.80
20856;DHT22;63058;49.424;8.420;2023-04-03T15:10:55;20.20;73.90
20856;DHT22;63058;49.424;8.420;2023-04-03T15:13:24;20.50;80.90
20856;DHT22;63058;49.424;8.420;2023-04-03T15:15:51;20.90;80.90
20856;DHT22;63058;49.424;8.420;2023-04-03T15:18:20;21.20;79.70
20856;DHT22;63058;49.424;8.420;2023-04-03T15:20:46;21.40;75.20
20856;DHT22;63058;49.424;8.420;2023-04-03T15:23:16;21.60;76.10
20856;DHT22;63058;49.424;8.420;2023-04-03T15:25:43;21.80;77.90
20856;DHT22;63058;49.424;8.420;2023-04-03T15:28:39;22.00;77.50
20856;DHT22;63058;49.424;8.420;2023-04-03T15:31:04;22.20;69.60
20856;DHT22;63058;49.424;8.420;2023-04-03T15:33:31;22.40;77.90
20856;DHT22;63058;49.424;8.420;2023-04-03T15:35:57;22.70;76.30
20856;DHT22;63058;49.424;8.420;2023-04-03T15:38:23;22.80;76.80
20856;DHT22;63058;49.424;8.420;2023-04-03T15:40:49;23.00;75.20
20856;DHT22;63058;49.424;8.420;2023-04-03T15:43:15;23.00;74.40
20856;DHT22;63058;49.424;8.420;2023-04-03T15:45:41;23.10;72.90
20856;DHT22;63058;49.424;8.420;2023-04-03T15:48:08;23.10;72.30
20856;DHT22;63058;49.424;8.420;2023-04-03T15:50:35;23.10;72.50
20856;DHT22;63058;49.424;8.420;2023-04-03T15:53:01;23.10;71.90
20856;DHT22;63058;49.424;8.420;2023-04-03T15:55:33;23.00;67.90
20856;DHT22;63058;49.424;8.420;2023-04-03T15:57:59;22.60;65.00
20856;DHT22;63058;49.424;8.420;2023-04-03T16:00:25;22.20;64.40
20856;DHT22;63058;49.424;8.420;2023-04-03T16:02:55;22.00;64.80
20856;DHT22;63058;49.424;8.420;2023-04-03T16:05:23;21.70;62.60
20856;DHT22;63058;49.424;8.420;2023-04-03T16:07:48;21.60;63.40
20856;DHT22;63058;49.424;8.420;2023-04-03T16:10:16;21.50;65.60
20856;DHT22;63058;49.424;8.420;2023-04-03T16:12:42;21.50;67.30
20856;DHT22;63058;49.424;8.420;2023-04-03T16:15:08;21.60;68.50
20856;DHT22;63058;49.424;8.420;2023-04-03T16:17:35;21.70;69.20
20856;DHT22;63058;49.424;8.420;2023-04-03T16:20:03;21.80;69.10
20856;DHT22;63058;49.424;8.420;2023-04-03T16:22:29;22.00;69.50
20856;DHT22;63058;49.424;8.420;2023-04-03T16:24:55;22.10;68.70
20856;DHT22;63058;49.424;8.420;2023-04-03T16:27:22;22.30;69.60
20856;DHT22;63058;49.424;8.420;2023-04-03T16:29:56;22.50;71.30
20856;DHT22;63058;49.424;8.420;2023-04-03T16:32:22;22.70;69.20
20856;DHT22;63058;49.424;8.420;2023-04-03T16:34:48;22.80;65.80
20856;DHT22;63058;49.424;8.420;2023-04-03T16:37:15;22.80;65.50
20856;DHT22;63058;49.424;8.420;2023-04-03T16:39:41;22.60;65.00
20856;DHT22;63058;49.424;8.420;2023-04-03T16:42:07;22.50;64.20
20856;DHT22;63058;49.424;8.420;2023-04-03T16:44:34;22.50;63.90
20856;DHT22;63058;49.424;8.420;2023-04-03T16:47:00;22.30;64.00
20856;DHT22;63058;49.424;8.420;2023-04-03T16:49:26;22.10;62.50
20856;DHT22;63058;49.424;8.420;2023-04-03T16:51:57;21.70;61.10
20856;DHT22;63058;49.424;8.420;2023-04-03T16:54:23;21.10;59.90
20856;DHT22;63058;49.424;8.420;2023-04-03T16:56:48;20.50;59.30
20856;DHT22;63058;49.424;8.420;2023-04-03T16:59:14;19.80;57.50
20856;DHT22;63058;49.424;8.420;2023-04-03T17:01:40;19.10;58.10
20856;DHT22;63058;49.424;8.420;2023-04-03T17:04:05;18.40;58.20
20856;DHT22;63058;49.424;8.420;2023-04-03T17:06:31;17.80;58.90
20856;DHT22;63058;49.424;8.420;2023-04-03T17:08:57;17.20;58.80
20856;DHT22;63058;49.424;8.420;2023-04-03T17:11:22;16.70;59.00
20856;DHT22;63058;49.424;8.420;2023-04-03T17:13:48;16.20;59.10
20856;DHT22;63058;49.424;8.420;2023-04-03T17:16:15;15.80;59.10
20856;DHT22;63058;49.424;8.420;2023-04-03T17:18:42;15.40;59.20
20856;DHT22;63058;49.424;8.420;2023-04-03T17:21:07;15.10;60.40
20856;DHT22;63058;49.424;8.420;2023-04-03T17:23:34;14.80;61.30
20856;DHT22;63058;49.424;8.420;2023-04-03T17:26:02;14.50;61.90